sensor_id;sensor_type;location;lat;lon;timestamp;P1;durP1;ratioP1;P2;durP2;ratioP2
21503;SDS011;10913;51.992;9.228;2023-12-22T00:01:10;28.38;;;4.45;;
21503;SDS011;10913;51.992;9.228;2023-12-22T00:03:36;20.95;;;4.00;;
21503;SDS011;10913;51.992;9.228;2023-12-22T00:06:02;16.33;;;4.07;;
21503;SDS011;10913;51.992;9.228;2023-12-22T00:08:28;18.02;;;3.47;;
21503;SDS011;10913;51.992;9.228;2023-12-22T00:10:53;18.02;;;4.10;;
21503;SDS011;10913;51.992;9.228;2023-12-22T00:13:18;22.42;;;3.95;;
21503;SDS011;10913;51.992;9.228;2023-12-22T00:15:43;19.45;;;4.25;;
21503;SDS011;10913;51.992;9.228;2023-12-22T00:18:09;18.38;;;4.10;;
21503;SDS011;10913;51.992;9.228;2023-12-22T00:20:35;17.20;;;4.07;;
21503;SDS011;10913;51.992;9.228;2023-12-22T00:23:00;18.58;;;3.72;;
21503;SDS011;10913;51.992;9.228;2023-12-22T00:25:26;21.88;;;4.38;;
21503;SDS011;10913;51.992;9.228;2023-12-22T00:27:51;16.48;;;4.20;;
21503;SDS011;10913;51.992;9.228;2023-12-22T00:30:17;12.73;;;3.30;;
21503;SDS011;10913;51.992;9.228;2023-12-22T00:32:42;18.45;;;3.88;;
21503;SDS011;10913;51.992;9.228;2023-12-22T00:35:08;16.25;;;3.53;;
21503;SDS011;10913;51.992;9.228;2023-12-22T00:37:33;16.45;;;3.63;;
21503;SDS011;10913;51.992;9.228;2023-12-22T00:39:59;14.10;;;3.35;;
21503;SDS011;10913;51.992;9.228;2023-12-22T00:42:24;11.30;;;2.92;;
21503;SDS011;10913;51.992;9.228;2023-12-22T00:44:50;12.73;;;2.80;;
21503;SDS011;10913;51.992;9.228;2023-12-22T00:47:16;18.45;;;3.20;;
21503;SDS011;10913;51.992;9.228;2023-12-22T00:49:41;16.73;;;3.28;;
21503;SDS011;10913;51.992;9.228;2023-12-22T00:52:07;19.73;;;3.42;;
21503;SDS011;10913;51.992;9.228;2023-12-22T00:54:32;18.20;;;3.92;;
21503;SDS011;10913;51.992;9.228;2023-12-22T00:56:58;17.65;;;3.72;;
21503;SDS011;10913;51.992;9.228;2023-12-22T00:59:23;19.83;;;4.13;;
21503;SDS011;10913;51.992;9.228;2023-12-22T01:01:49;17.20;;;3.75;;
21503;SDS011;10913;51.992;9.228;2023-12-22T01:04:14;15.23;;;3.22;;
21503;SDS011;10913;51.992;9.228;2023-12-22T01:06:40;11.82;;;3.10;;
21503;SDS011;10913;51.992;9.228;2023-12-22T01:09:05;22.50;;;3.78;;
21503;SDS011;10913;51.992;9.228;2023-12-22T01:11:31;15.02;;;2.78;;
21503;SDS011;10913;51.992;9.228;2023-12-22T01:13:56;10.73;;;2.80;;
21503;SDS011;10913;51.992;9.228;2023-12-22T01:16:22;16.27;;;3.00;;
21503;SDS011;10913;51.992;9.228;2023-12-22T01:18:49;11.93;;;2.72;;
21503;SDS011;10913;51.992;9.228;2023-12-22T01:21:15;14.07;;;2.80;;
21503;SDS011;10913;51.992;9.228;2023-12-22T01:23:44;11.55;;;2.70;;
21503;SDS011;10913;51.992;9.228;2023-12-22T01:26:09;15.98;;;3.30;;
21503;SDS011;10913;51.992;9.228;2023-12-22T01:28:34;12.48;;;2.53;;
21503;SDS011;10913;51.992;9.228;2023-12-22T01:31:00;18.80;;;3.53;;
21503;SDS011;10913;51.992;9.228;2023-12-22T01:33:26;14.98;;;3.08;;
21503;SDS011;10913;51.992;9.228;2023-12-22T01:35:51;12.82;;;2.88;;
21503;SDS011;10913;51.992;9.228;2023-12-22T01:38:17;13.52;;;2.95;;
21503;SDS011;10913;51.992;9.228;2023-12-22T01:40:42;9.05;;;2.33;;
21503;SDS011;10913;51.992;9.228;2023-12-22T01:43:07;10.27;;;2.42;;
21503;SDS011;10913;51.992;9.228;2023-12-22T01:45:33;14.00;;;2.72;;
21503;SDS011;10913;51.992;9.228;2023-12-22T01:47:58;9.52;;;2.20;;
21503;SDS011;10913;51.992;9.228;2023-12-22T01:50:24;12.32;;;2.53;;
21503;SDS011;10913;51.992;9.228;2023-12-22T01:52:50;9.45;;;1.98;;
21503;SDS011;10913;51.992;9.228;2023-12-22T01:55:15;12.50;;;2.42;;
21503;SDS011;10913;51.992;9.228;2023-12-22T01:57:42;8.57;;;2.17;;
21503;SDS011;10913;51.992;9.228;2023-12-22T02:00:09;12.73;;;2.60;;
21503;SDS011;10913;51.992;9.228;2023-12-22T02:02:36;9.25;;;2.25;;
21503;SDS011;10913;51.992;9.228;2023-12-22T02:05:03;11.77;;;2.47;;
21503;SDS011;10913;51.992;9.228;2023-12-22T02:07:29;12.65;;;2.50;;
21503;SDS011;10913;51.992;9.228;2023-12-22T02:09:54;8.57;;;2.17;;
21503;SDS011;10913;51.992;9.228;2023-12-22T02:12:20;10.18;;;2.25;;
21503;SDS011;10913;51.992;9.228;2023-12-22T02:14:45;12.60;;;2.30;;
21503;SDS011;10913;51.992;9.228;2023-12-22T02:17:26;8.95;;;2.33;;
21503;SDS011;10913;51.992;9.228;2023-12-22T02:19:57;12.32;;;2.47;;
21503;SDS011;10913;51.992;9.228;2023-12-22T02:22:23;12.02;;;2.47;;
21503;SDS011;10913;51.992;9.228;2023-12-22T02:24:49;11.95;;;2.63;;
21503;SDS011;10913;51.992;9.228;2023-12-22T02:27:17;15.40;;;3.10;;
21503;SDS011;10913;51.992;9.228;2023-12-22T02:32:37;14.77;;;2.97;;
21503;SDS011;10913;51.992;9.228;2023-12-22T02:35:17;14.30;;;2.70;;
21503;SDS011;10913;51.992;9.228;2023-12-22T02:37:49;12.32;;;2.80;;
21503;SDS011;10913;51.992;9.228;2023-12-22T02:40:15;15.32;;;2.83;;
21503;SDS011;10913;51.992;9.228;2023-12-22T02:42:40;12.98;;;2.67;;
21503;SDS011;10913;51.992;9.228;2023-12-22T02:45:06;9.05;;;2.45;;
21503;SDS011;10913;51.992;9.228;2023-12-22T02:47:39;16.02;;;2.65;;
21503;SDS011;10913;51.992;9.228;2023-12-22T02:50:04;14.57;;;3.13;;
21503;SDS011;10913;51.992;9.228;2023-12-22T02:52:30;11.98;;;3.03;;
21503;SDS011;10913;51.992;9.228;2023-12-22T02:54:57;12.88;;;2.88;;
21503;SDS011;10913;51.992;9.228;2023-12-22T02:57:22;12.35;;;2.95;;
21503;SDS011;10913;51.992;9.228;2023-12-22T02:59:48;9.60;;;2.50;;
21503;SDS011;10913;51.992;9.228;2023-12-22T03:02:13;12.60;;;2.70;;
21503;SDS011;10913;51.992;9.228;2023-12-22T03:04:38;8.40;;;2.67;;
21503;SDS011;10913;51.992;9.228;2023-12-22T03:07:04;9.85;;;2.38;;
21503;SDS011;10913;51.992;9.228;2023-12-22T03:09:29;9.60;;;2.20;;
21503;SDS011;10913;51.992;9.228;2023-12-22T03:11:55;11.15;;;2.33;;
21503;SDS011;10913;51.992;9.228;2023-12-22T03:14:22;7.30;;;1.80;;
21503;SDS011;10913;51.992;9.228;2023-12-22T03:16:47;8.63;;;2.40;;
21503;SDS011;10913;51.992;9.228;2023-12-22T03:19:12;7.60;;;2.28;;
21503;SDS011;10913;51.992;9.228;2023-12-22T03:21:38;7.55;;;1.98;;
21503;SDS011;10913;51.992;9.228;2023-12-22T03:24:03;8.63;;;2.25;;
21503;SDS011;10913;51.992;9.228;2023-12-22T03:26:29;9.65;;;2.55;;
21503;SDS011;10913;51.992;9.228;2023-12-22T03:28:54;8.98;;;2.50;;
21503;SDS011;10913;51.992;9.228;2023-12-22T03:31:19;7.70;;;2.10;;
21503;SDS011;10913;51.992;9.228;2023-12-22T03:33:45;7.82;;;2.22;;
21503;SDS011;10913;51.992;9.228;2023-12-22T03:36:10;11.27;;;2.50;;
21503;SDS011;10913;51.992;9.228;2023-12-22T03:38:35;8.65;;;2.10;;
21503;SDS011;10913;51.992;9.228;2023-12-22T03:41:01;15.98;;;2.75;;
21503;SDS011;10913;51.992;9.228;2023-12-22T03:43:26;10.38;;;2.85;;
21503;SDS011;10913;51.992;9.228;2023-12-22T03:45:51;9.93;;;2.53;;
21503;SDS011;10913;51.992;9.228;2023-12-22T03:48:17;15.32;;;3.38;;
21503;SDS011;10913;51.992;9.228;2023-12-22T03:50:42;14.93;;;3.13;;
21503;SDS011;10913;51.992;9.228;2023-12-22T03:53:08;10.13;;;2.80;;
21503;SDS011;10913;51.992;9.228;2023-12-22T03:55:34;12.10;;;3.08;;
21503;SDS011;10913;51.992;9.228;2023-12-22T03:57:59;16.30;;;3.20;;
21503;SDS011;10913;51.992;9.228;2023-12-22T04:00:24;15.27;;;3.20;;
21503;SDS011;10913;51.992;9.228;2023-12-22T04:02:50;13.77;;;3.40;;
21503;SDS011;10913;51.992;9.228;2023-12-22T04:05:15;13.60;;;3.38;;
21503;SDS011;10913;51.992;9.228;2023-12-22T04:07:40;16.05;;;3.08;;
21503;SDS011;10913;51.992;9.228;2023-12-22T04:10:06;15.57;;;3.83;;
21503;SDS011;10913;51.992;9.228;2023-12-22T04:12:32;14.77;;;4.03;;
21503;SDS011;10913;51.992;9.228;2023-12-22T04:14:57;16.75;;;3.40;;
21503;SDS011;10913;51.992;9.228;2023-12-22T04:17:22;15.57;;;3.38;;
21503;SDS011;10913;51.992;9.228;2023-12-22T04:19:48;18.20;;;3.80;;
21503;SDS011;10913;51.992;9.228;2023-12-22T04:22:13;17.23;;;3.65;;
21503;SDS011;10913;51.992;9.228;2023-12-22T04:24:38;15.68;;;3.47;;
21503;SDS011;10913;51.992;9.228;2023-12-22T04:27:03;19.80;;;3.90;;
21503;SDS011;10913;51.992;9.228;2023-12-22T04:29:29;15.75;;;3.30;;
21503;SDS011;10913;51.992;9.228;2023-12-22T04:31:55;19.65;;;3.80;;
21503;SDS011;10913;51.992;9.228;2023-12-22T04:34:20;17.30;;;3.55;;
21503;SDS011;10913;51.992;9.228;2023-12-22T04:36:45;17.45;;;3.25;;
21503;SDS011;10913;51.992;9.228;2023-12-22T04:39:12;14.57;;;3.50;;
21503;SDS011;10913;51.992;9.228;2023-12-22T04:41:37;15.35;;;3.10;;
21503;SDS011;10913;51.992;9.228;2023-12-22T04:44:02;17.52;;;3.65;;
21503;SDS011;10913;51.992;9.228;2023-12-22T04:46:28;14.80;;;3.33;;
21503;SDS011;10913;51.992;9.228;2023-12-22T04:48:54;15.82;;;3.00;;
21503;SDS011;10913;51.992;9.228;2023-12-22T04:51:20;11.82;;;2.90;;
21503;SDS011;10913;51.992;9.228;2023-12-22T04:53:46;17.73;;;3.83;;
21503;SDS011;10913;51.992;9.228;2023-12-22T04:56:11;12.80;;;3.00;;
21503;SDS011;10913;51.992;9.228;2023-12-22T04:58:37;13.00;;;2.90;;
21503;SDS011;10913;51.992;9.228;2023-12-22T05:01:02;13.65;;;2.70;;
21503;SDS011;10913;51.992;9.228;2023-12-22T05:03:27;12.70;;;2.95;;
21503;SDS011;10913;51.992;9.228;2023-12-22T05:05:53;8.68;;;2.78;;
21503;SDS011;10913;51.992;9.228;2023-12-22T05:08:18;11.63;;;3.20;;
21503;SDS011;10913;51.992;9.228;2023-12-22T05:10:43;11.40;;;3.10;;
21503;SDS011;10913;51.992;9.228;2023-12-22T05:13:09;12.25;;;2.83;;
21503;SDS011;10913;51.992;9.228;2023-12-22T05:15:34;12.90;;;3.17;;
21503;SDS011;10913;51.992;9.228;2023-12-22T05:17:59;13.23;;;2.63;;
21503;SDS011;10913;51.992;9.228;2023-12-22T05:20:25;11.45;;;2.55;;
21503;SDS011;10913;51.992;9.228;2023-12-22T05:22:50;11.35;;;2.80;;
21503;SDS011;10913;51.992;9.228;2023-12-22T05:25:15;11.48;;;2.65;;
21503;SDS011;10913;51.992;9.228;2023-12-22T05:27:41;12.65;;;2.95;;
21503;SDS011;10913;51.992;9.228;2023-12-22T05:30:08;9.00;;;2.40;;
21503;SDS011;10913;51.992;9.228;2023-12-22T05:32:34;7.97;;;1.83;;
21503;SDS011;10913;51.992;9.228;2023-12-22T05:34:59;13.20;;;2.47;;
21503;SDS011;10913;51.992;9.228;2023-12-22T05:37:24;9.13;;;2.17;;
21503;SDS011;10913;51.992;9.228;2023-12-22T05:39:50;8.10;;;2.00;;
21503;SDS011;10913;51.992;9.228;2023-12-22T05:42:15;8.02;;;2.60;;
21503;SDS011;10913;51.992;9.228;2023-12-22T05:44:40;10.68;;;2.50;;
21503;SDS011;10913;51.992;9.228;2023-12-22T05:47:06;11.57;;;2.50;;
21503;SDS011;10913;51.992;9.228;2023-12-22T05:49:32;6.82;;;2.05;;
21503;SDS011;10913;51.992;9.228;2023-12-22T05:51:57;10.10;;;2.50;;
21503;SDS011;10913;51.992;9.228;2023-12-22T05:54:23;7.20;;;1.80;;
21503;SDS011;10913;51.992;9.228;2023-12-22T05:56:50;6.55;;;1.80;;
21503;SDS011;10913;51.992;9.228;2023-12-22T05:59:16;7.20;;;2.03;;
21503;SDS011;10913;51.992;9.228;2023-12-22T06:01:42;11.05;;;2.03;;
21503;SDS011;10913;51.992;9.228;2023-12-22T06:04:07;6.88;;;2.05;;
21503;SDS011;10913;51.992;9.228;2023-12-22T06:06:33;7.65;;;2.00;;
21503;SDS011;10913;51.992;9.228;2023-12-22T06:08:58;8.35;;;1.85;;
21503;SDS011;10913;51.992;9.228;2023-12-22T06:11:23;4.65;;;1.40;;
21503;SDS011;10913;51.992;9.228;2023-12-22T06:13:49;8.13;;;1.70;;
21503;SDS011;10913;51.992;9.228;2023-12-22T06:16:15;5.28;;;1.55;;
21503;SDS011;10913;51.992;9.228;2023-12-22T06:18:40;5.05;;;1.50;;
21503;SDS011;10913;51.992;9.228;2023-12-22T06:21:06;5.80;;;1.73;;
21503;SDS011;10913;51.992;9.228;2023-12-22T06:23:33;7.40;;;1.75;;
21503;SDS011;10913;51.992;9.228;2023-12-22T06:25:58;7.35;;;1.60;;
21503;SDS011;10913;51.992;9.228;2023-12-22T06:28:24;8.18;;;1.75;;
21503;SDS011;10913;51.992;9.228;2023-12-22T06:30:49;9.43;;;2.08;;
21503;SDS011;10913;51.992;9.228;2023-12-22T06:33:14;6.97;;;1.85;;
21503;SDS011;10913;51.992;9.228;2023-12-22T06:35:40;8.10;;;1.90;;
21503;SDS011;10913;51.992;9.228;2023-12-22T06:38:09;10.43;;;2.22;;
21503;SDS011;10913;51.992;9.228;2023-12-22T06:40:36;9.00;;;1.98;;
21503;SDS011;10913;51.992;9.228;2023-12-22T06:43:02;9.15;;;1.73;;
21503;SDS011;10913;51.992;9.228;2023-12-22T06:45:28;10.20;;;2.45;;
21503;SDS011;10913;51.992;9.228;2023-12-22T06:47:53;11.65;;;2.17;;
21503;SDS011;10913;51.992;9.228;2023-12-22T06:50:18;9.05;;;2.20;;
21503;SDS011;10913;51.992;9.228;2023-12-22T06:52:44;9.82;;;2.00;;
21503;SDS011;10913;51.992;9.228;2023-12-22T06:55:09;8.48;;;2.22;;
21503;SDS011;10913;51.992;9.228;2023-12-22T06:57:35;11.55;;;2.70;;
21503;SDS011;10913;51.992;9.228;2023-12-22T07:00:00;12.57;;;2.50;;
21503;SDS011;10913;51.992;9.228;2023-12-22T07:02:26;8.50;;;2.25;;
21503;SDS011;10913;51.992;9.228;2023-12-22T07:07:35;10.77;;;2.42;;
21503;SDS011;10913;51.992;9.228;2023-12-22T07:10:01;9.30;;;2.67;;
21503;SDS011;10913;51.992;9.228;2023-12-22T07:12:26;9.40;;;2.42;;
21503;SDS011;10913;51.992;9.228;2023-12-22T07:14:51;11.63;;;2.70;;
21503;SDS011;10913;51.992;9.228;2023-12-22T07:17:17;15.60;;;3.05;;
21503;SDS011;10913;51.992;9.228;2023-12-22T07:19:42;12.20;;;2.72;;
21503;SDS011;10913;51.992;9.228;2023-12-22T07:22:07;11.88;;;2.92;;
21503;SDS011;10913;51.992;9.228;2023-12-22T07:24:33;8.32;;;2.72;;
21503;SDS011;10913;51.992;9.228;2023-12-22T07:26:58;11.80;;;2.47;;
21503;SDS011;10913;51.992;9.228;2023-12-22T07:29:24;9.18;;;2.17;;
21503;SDS011;10913;51.992;9.228;2023-12-22T07:31:49;8.77;;;2.30;;
21503;SDS011;10913;51.992;9.228;2023-12-22T07:34:15;14.57;;;3.00;;
21503;SDS011;10913;51.992;9.228;2023-12-22T07:36:41;13.68;;;2.85;;
21503;SDS011;10913;51.992;9.228;2023-12-22T07:39:07;8.43;;;2.50;;
21503;SDS011;10913;51.992;9.228;2023-12-22T07:41:34;9.38;;;2.45;;
21503;SDS011;10913;51.992;9.228;2023-12-22T07:43:59;10.02;;;2.28;;
21503;SDS011;10913;51.992;9.228;2023-12-22T07:46:26;8.38;;;2.03;;
21503;SDS011;10913;51.992;9.228;2023-12-22T07:48:53;13.02;;;2.60;;
21503;SDS011;10913;51.992;9.228;2023-12-22T07:51:18;12.98;;;2.40;;
21503;SDS011;10913;51.992;9.228;2023-12-22T07:53:44;10.50;;;2.53;;
21503;SDS011;10913;51.992;9.228;2023-12-22T07:56:09;10.40;;;2.50;;
21503;SDS011;10913;51.992;9.228;2023-12-22T07:58:35;10.90;;;2.67;;
21503;SDS011;10913;51.992;9.228;2023-12-22T08:01:01;12.20;;;3.03;;
21503;SDS011;10913;51.992;9.228;2023-12-22T08:03:27;10.60;;;3.03;;
21503;SDS011;10913;51.992;9.228;2023-12-22T08:05:53;11.00;;;2.35;;
21503;SDS011;10913;51.992;9.228;2023-12-22T08:08:18;14.48;;;3.25;;
21503;SDS011;10913;51.992;9.228;2023-12-22T08:10:44;12.60;;;3.00;;
21503;SDS011;10913;51.992;9.228;2023-12-22T08:13:09;11.63;;;3.05;;
21503;SDS011;10913;51.992;9.228;2023-12-22T08:15:34;9.40;;;2.70;;
21503;SDS011;10913;51.992;9.228;2023-12-22T08:17:59;13.13;;;2.90;;
21503;SDS011;10913;51.992;9.228;2023-12-22T08:20:25;11.68;;;2.85;;
21503;SDS011;10913;51.992;9.228;2023-12-22T08:22:50;11.75;;;2.72;;
21503;SDS011;10913;51.992;9.228;2023-12-22T08:25:16;13.85;;;2.88;;
21503;SDS011;10913;51.992;9.228;2023-12-22T08:27:47;11.57;;;2.88;;
21503;SDS011;10913;51.992;9.228;2023-12-22T08:30:13;16.40;;;2.88;;
21503;SDS011;10913;51.992;9.228;2023-12-22T08:32:39;16.33;;;2.95;;
21503;SDS011;10913;51.992;9.228;2023-12-22T08:35:05;12.60;;;2.90;;
21503;SDS011;10913;51.992;9.228;2023-12-22T08:37:31;15.68;;;2.78;;
21503;SDS011;10913;51.992;9.228;2023-12-22T08:39:57;14.85;;;3.58;;
21503;SDS011;10913;51.992;9.228;2023-12-22T08:42:22;14.40;;;3.08;;
21503;SDS011;10913;51.992;9.228;2023-12-22T08:44:50;11.00;;;2.40;;
21503;SDS011;10913;51.992;9.228;2023-12-22T08:47:19;9.68;;;2.45;;
21503;SDS011;10913;51.992;9.228;2023-12-22T08:49:44;14.57;;;2.90;;
21503;SDS011;10913;51.992;9.228;2023-12-22T08:52:09;16.15;;;3.30;;
21503;SDS011;10913;51.992;9.228;2023-12-22T08:54:35;12.38;;;2.70;;
21503;SDS011;10913;51.992;9.228;2023-12-22T08:57:03;10.88;;;2.50;;
21503;SDS011;10913;51.992;9.228;2023-12-22T08:59:29;11.18;;;2.55;;
21503;SDS011;10913;51.992;9.228;2023-12-22T09:01:54;15.88;;;3.08;;
21503;SDS011;10913;51.992;9.228;2023-12-22T09:04:20;12.65;;;2.25;;
21503;SDS011;10913;51.992;9.228;2023-12-22T09:06:47;10.85;;;2.53;;
21503;SDS011;10913;51.992;9.228;2023-12-22T09:09:16;10.50;;;2.53;;
21503;SDS011;10913;51.992;9.228;2023-12-22T09:11:42;15.48;;;3.47;;
21503;SDS011;10913;51.992;9.228;2023-12-22T09:14:07;12.75;;;2.72;;
21503;SDS011;10913;51.992;9.228;2023-12-22T09:16:34;17.42;;;2.90;;
21503;SDS011;10913;51.992;9.228;2023-12-22T09:19:00;15.38;;;3.17;;
21503;SDS011;10913;51.992;9.228;2023-12-22T09:21:26;14.95;;;3.05;;
21503;SDS011;10913;51.992;9.228;2023-12-22T09:23:51;13.63;;;2.85;;
21503;SDS011;10913;51.992;9.228;2023-12-22T09:26:17;12.60;;;3.10;;
21503;SDS011;10913;51.992;9.228;2023-12-22T09:28:44;17.48;;;3.22;;
21503;SDS011;10913;51.992;9.228;2023-12-22T09:31:10;15.82;;;2.88;;
21503;SDS011;10913;51.992;9.228;2023-12-22T09:33:37;14.13;;;2.92;;
21503;SDS011;10913;51.992;9.228;2023-12-22T09:36:03;13.30;;;2.75;;
21503;SDS011;10913;51.992;9.228;2023-12-22T09:38:29;13.35;;;2.92;;
21503;SDS011;10913;51.992;9.228;2023-12-22T09:40:54;19.35;;;3.63;;
21503;SDS011;10913;51.992;9.228;2023-12-22T09:43:21;20.52;;;5.00;;
21503;SDS011;10913;51.992;9.228;2023-12-22T09:45:46;17.05;;;3.17;;
21503;SDS011;10913;51.992;9.228;2023-12-22T09:48:14;11.52;;;2.85;;
21503;SDS011;10913;51.992;9.228;2023-12-22T09:50:43;13.13;;;2.67;;
21503;SDS011;10913;51.992;9.228;2023-12-22T09:53:09;15.95;;;3.17;;
21503;SDS011;10913;51.992;9.228;2023-12-22T09:55:37;15.35;;;3.30;;
21503;SDS011;10913;51.992;9.228;2023-12-22T09:58:04;11.82;;;2.83;;
21503;SDS011;10913;51.992;9.228;2023-12-22T10:00:32;14.60;;;2.88;;
21503;SDS011;10913;51.992;9.228;2023-12-22T10:03:00;15.13;;;3.15;;
21503;SDS011;10913;51.992;9.228;2023-12-22T10:05:27;15.60;;;2.60;;
21503;SDS011;10913;51.992;9.228;2023-12-22T10:07:54;13.25;;;2.83;;
21503;SDS011;10913;51.992;9.228;2023-12-22T10:10:21;15.27;;;3.33;;
21503;SDS011;10913;51.992;9.228;2023-12-22T10:12:47;10.82;;;2.72;;
21503;SDS011;10913;51.992;9.228;2023-12-22T10:15:13;10.38;;;2.35;;
21503;SDS011;10913;51.992;9.228;2023-12-22T10:17:40;12.77;;;2.22;;
21503;SDS011;10913;51.992;9.228;2023-12-22T10:20:06;11.98;;;2.33;;
21503;SDS011;10913;51.992;9.228;2023-12-22T10:22:32;10.00;;;2.20;;
21503;SDS011;10913;51.992;9.228;2023-12-22T10:24:57;11.68;;;2.38;;
21503;SDS011;10913;51.992;9.228;2023-12-22T10:27:23;11.73;;;2.50;;
21503;SDS011;10913;51.992;9.228;2023-12-22T10:29:49;11.18;;;2.60;;
21503;SDS011;10913;51.992;9.228;2023-12-22T10:32:21;9.82;;;2.47;;
21503;SDS011;10913;51.992;9.228;2023-12-22T10:34:46;10.68;;;2.58;;
21503;SDS011;10913;51.992;9.228;2023-12-22T10:37:12;9.20;;;2.40;;
21503;SDS011;10913;51.992;9.228;2023-12-22T10:39:38;9.65;;;2.55;;
21503;SDS011;10913;51.992;9.228;2023-12-22T10:42:04;7.80;;;2.20;;
21503;SDS011;10913;51.992;9.228;2023-12-22T10:44:29;10.40;;;2.22;;
21503;SDS011;10913;51.992;9.228;2023-12-22T10:46:55;7.53;;;1.83;;
21503;SDS011;10913;51.992;9.228;2023-12-22T10:49:22;12.15;;;2.38;;
21503;SDS011;10913;51.992;9.228;2023-12-22T10:51:48;6.10;;;2.22;;
21503;SDS011;10913;51.992;9.228;2023-12-22T10:54:14;7.10;;;2.08;;
21503;SDS011;10913;51.992;9.228;2023-12-22T10:56:39;8.38;;;2.05;;
21503;SDS011;10913;51.992;9.228;2023-12-22T10:59:05;6.47;;;1.65;;
21503;SDS011;10913;51.992;9.228;2023-12-22T11:01:31;4.93;;;1.40;;
21503;SDS011;10913;51.992;9.228;2023-12-22T11:04:03;7.18;;;1.88;;
21503;SDS011;10913;51.992;9.228;2023-12-22T11:06:34;6.45;;;1.98;;
21503;SDS011;10913;51.992;9.228;2023-12-22T11:09:03;7.40;;;2.00;;
21503;SDS011;10913;51.992;9.228;2023-12-22T11:11:38;6.53;;;1.95;;
21503;SDS011;10913;51.992;9.228;2023-12-22T11:14:05;4.47;;;1.30;;
21503;SDS011;10913;51.992;9.228;2023-12-22T11:16:32;8.35;;;1.98;;
21503;SDS011;10913;51.992;9.228;2023-12-22T11:18:59;5.50;;;1.73;;
21503;SDS011;10913;51.992;9.228;2023-12-22T11:21:26;4.22;;;1.42;;
21503;SDS011;10913;51.992;9.228;2023-12-22T11:23:52;7.97;;;2.00;;
21503;SDS011;10913;51.992;9.228;2023-12-22T11:26:19;6.85;;;1.63;;
21503;SDS011;10913;51.992;9.228;2023-12-22T11:28:46;5.38;;;1.70;;
21503;SDS011;10913;51.992;9.228;2023-12-22T11:31:12;8.68;;;1.92;;
21503;SDS011;10913;51.992;9.228;2023-12-22T11:33:45;6.00;;;1.67;;
21503;SDS011;10913;51.992;9.228;2023-12-22T11:36:15;4.35;;;1.55;;
21503;SDS011;10913;51.992;9.228;2023-12-22T11:38:42;6.43;;;1.73;;
21503;SDS011;10913;51.992;9.228;2023-12-22T11:41:24;4.35;;;1.58;;
21503;SDS011;10913;51.992;9.228;2023-12-22T11:43:52;6.45;;;1.50;;
21503;SDS011;10913;51.992;9.228;2023-12-22T11:46:19;6.38;;;1.70;;
21503;SDS011;10913;51.992;9.228;2023-12-22T11:48:48;7.45;;;1.60;;
21503;SDS011;10913;51.992;9.228;2023-12-22T11:51:17;5.93;;;1.73;;
21503;SDS011;10913;51.992;9.228;2023-12-22T11:53:43;6.93;;;1.80;;
21503;SDS011;10913;51.992;9.228;2023-12-22T11:56:10;4.72;;;1.75;;
21503;SDS011;10913;51.992;9.228;2023-12-22T12:01:08;6.65;;;1.55;;
21503;SDS011;10913;51.992;9.228;2023-12-22T12:03:55;19.02;;;14.68;;
21503;SDS011;10913;51.992;9.228;2023-12-22T12:06:30;10.85;;;7.82;;
21503;SDS011;10913;51.992;9.228;2023-12-22T12:08:57;5.47;;;1.63;;
21503;SDS011;10913;51.992;9.228;2023-12-22T12:12:08;5.18;;;1.70;;
21503;SDS011;10913;51.992;9.228;2023-12-22T12:14:25;8.52;;;1.88;;
21503;SDS011;10913;51.992;9.228;2023-12-22T12:17:04;4.55;;;1.67;;
21503;SDS011;10913;51.992;9.228;2023-12-22T12:19:36;4.20;;;1.40;;
21503;SDS011;10913;51.992;9.228;2023-12-22T12:22:02;4.63;;;1.60;;
21503;SDS011;10913;51.992;9.228;2023-12-22T12:24:28;3.80;;;1.38;;
21503;SDS011;10913;51.992;9.228;2023-12-22T12:26:54;6.85;;;1.65;;
21503;SDS011;10913;51.992;9.228;2023-12-22T12:29:20;4.22;;;1.10;;
21503;SDS011;10913;51.992;9.228;2023-12-22T12:31:46;4.75;;;1.40;;
21503;SDS011;10913;51.992;9.228;2023-12-22T12:34:12;5.53;;;1.45;;
21503;SDS011;10913;51.992;9.228;2023-12-22T12:36:39;5.38;;;1.45;;
21503;SDS011;10913;51.992;9.228;2023-12-22T12:39:06;6.05;;;1.45;;
21503;SDS011;10913;51.992;9.228;2023-12-22T12:41:32;5.43;;;1.30;;
21503;SDS011;10913;51.992;9.228;2023-12-22T12:44:03;5.10;;;1.40;;
21503;SDS011;10913;51.992;9.228;2023-12-22T12:46:35;5.95;;;1.52;;
21503;SDS011;10913;51.992;9.228;2023-12-22T12:51:35;5.80;;;1.40;;
21503;SDS011;10913;51.992;9.228;2023-12-22T12:54:02;3.95;;;1.50;;
21503;SDS011;10913;51.992;9.228;2023-12-22T12:56:28;3.60;;;1.80;;
21503;SDS011;10913;51.992;9.228;2023-12-22T12:58:53;6.30;;;1.65;;
21503;SDS011;10913;51.992;9.228;2023-12-22T13:01:19;3.35;;;1.58;;
21503;SDS011;10913;51.992;9.228;2023-12-22T13:03:51;3.80;;;1.50;;
21503;SDS011;10913;51.992;9.228;2023-12-22T13:06:18;6.15;;;1.75;;
21503;SDS011;10913;51.992;9.228;2023-12-22T13:08:47;2.45;;;1.25;;
21503;SDS011;10913;51.992;9.228;2023-12-22T13:11:23;3.90;;;1.33;;
21503;SDS011;10913;51.992;9.228;2023-12-22T13:13:53;3.15;;;1.20;;
21503;SDS011;10913;51.992;9.228;2023-12-22T13:16:19;4.90;;;1.60;;
21503;SDS011;10913;51.992;9.228;2023-12-22T13:18:51;4.68;;;1.40;;
21503;SDS011;10913;51.992;9.228;2023-12-22T13:21:17;2.15;;;1.17;;
21503;SDS011;10913;51.992;9.228;2023-12-22T13:23:42;2.33;;;1.20;;
21503;SDS011;10913;51.992;9.228;2023-12-22T13:26:18;2.97;;;1.38;;
21503;SDS011;10913;51.992;9.228;2023-12-22T13:28:44;5.32;;;1.55;;
21503;SDS011;10913;51.992;9.228;2023-12-22T13:31:13;3.15;;;1.20;;
21503;SDS011;10913;51.992;9.228;2023-12-22T13:33:42;3.05;;;1.63;;
21503;SDS011;10913;51.992;9.228;2023-12-22T13:36:07;3.88;;;1.30;;
21503;SDS011;10913;51.992;9.228;2023-12-22T13:38:32;1.88;;;1.08;;
21503;SDS011;10913;51.992;9.228;2023-12-22T13:41:00;4.25;;;1.20;;
21503;SDS011;10913;51.992;9.228;2023-12-22T13:43:30;3.75;;;1.13;;
21503;SDS011;10913;51.992;9.228;2023-12-22T13:45:56;4.47;;;1.30;;
21503;SDS011;10913;51.992;9.228;2023-12-22T13:48:22;2.17;;;1.05;;
21503;SDS011;10913;51.992;9.228;2023-12-22T13:50:57;4.43;;;1.25;;
21503;SDS011;10913;51.992;9.228;2023-12-22T13:53:23;4.95;;;1.10;;
21503;SDS011;10913;51.992;9.228;2023-12-22T13:55:58;2.20;;;1.17;;
21503;SDS011;10913;51.992;9.228;2023-12-22T13:58:24;2.97;;;1.20;;
21503;SDS011;10913;51.992;9.228;2023-12-22T14:00:51;2.53;;;1.10;;
21503;SDS011;10913;51.992;9.228;2023-12-22T14:03:17;2.75;;;1.00;;
21503;SDS011;10913;51.992;9.228;2023-12-22T14:05:46;3.78;;;1.40;;
21503;SDS011;10913;51.992;9.228;2023-12-22T14:08:15;5.05;;;1.40;;
21503;SDS011;10913;51.992;9.228;2023-12-22T14:10:46;4.53;;;1.30;;
21503;SDS011;10913;51.992;9.228;2023-12-22T14:13:12;3.40;;;1.33;;
21503;SDS011;10913;51.992;9.228;2023-12-22T14:15:38;2.85;;;1.10;;
21503;SDS011;10913;51.992;9.228;2023-12-22T14:18:03;1.63;;;1.00;;
21503;SDS011;10913;51.992;9.228;2023-12-22T14:20:29;2.80;;;1.02;;
21503;SDS011;10913;51.992;9.228;2023-12-22T14:22:54;3.28;;;1.00;;
21503;SDS011;10913;51.992;9.228;2023-12-22T14:25:19;2.85;;;1.20;;
21503;SDS011;10913;51.992;9.228;2023-12-22T14:27:45;4.55;;;1.65;;
21503;SDS011;10913;51.992;9.228;2023-12-22T14:30:10;4.07;;;1.10;;
21503;SDS011;10913;51.992;9.228;2023-12-22T14:32:36;1.63;;;0.80;;
21503;SDS011;10913;51.992;9.228;2023-12-22T14:35:02;2.72;;;1.40;;
21503;SDS011;10913;51.992;9.228;2023-12-22T14:37:28;3.28;;;1.23;;
21503;SDS011;10913;51.992;9.228;2023-12-22T14:39:54;4.38;;;1.48;;
21503;SDS011;10913;51.992;9.228;2023-12-22T14:42:19;3.50;;;1.40;;
21503;SDS011;10913;51.992;9.228;2023-12-22T14:44:44;1.90;;;1.08;;
21503;SDS011;10913;51.992;9.228;2023-12-22T14:47:10;2.30;;;1.15;;